Antonia, Missouri
Current Conditions -  °F | °C
As of 5:53 AM on Sunday 25 Jan 2015 (Local Time) from KCPS Reporting Station
Overcast Overcast  
Wind Chill:   Ceiling: 8500
Heat Index:   Visibility: 10mi
Dew Point:   Wind: 3mph
Humidity: 93%   Direction: 160°SSE
Pressure: 29.6"   Gusts: NA
Location:  38.3874°N, 90.4319°W
Report Text: KCPS 251153Z AUTO 16003KT 10SM FEW065 OVC085 06/05 A2960 RMK AO2 RAE52 SLP025 P0001 60003 70003 T00610050 10106 20061 56019 TSNO
Loading
Personal Weather Stations






























Interactive Weather Map New forecast layout! Learn more

10-Day Weather Forecast

Advertisements
Track Severe Weather on mobile